createdAt,value
2023-01-20T00:12:47.456Z,0.80
2023-01-20T00:27:53.312Z,0.80
2023-01-20T00:42:55.430Z,0.70
2023-01-20T00:57:57.386Z,0.60
2023-01-20T01:13:00.625Z,0.40
2023-01-20T01:28:02.583Z,0.40
2023-01-20T01:43:20.985Z,0.00
2023-01-20T01:58:28.429Z,-0.40
2023-01-20T02:13:30.297Z,-0.10
2023-01-20T02:29:04.919Z,0.00
2023-01-20T02:44:06.826Z,-0.30
2023-01-20T02:59:11.178Z,0.10
2023-01-20T03:14:14.675Z,0.10
2023-01-20T03:29:18.424Z,0.20
2023-01-20T03:44:54.008Z,0.20
2023-01-20T03:59:58.037Z,0.10
2023-01-20T04:15:01.218Z,0.10
2023-01-20T04:30:03.244Z,-0.10
2023-01-20T04:45:05.632Z,-0.30
2023-01-20T05:00:08.602Z,-0.50
2023-01-20T05:15:10.966Z,-0.60
2023-01-20T05:30:13.348Z,-0.80
2023-01-20T05:45:15.638Z,-0.60
2023-01-20T06:00:19.042Z,-0.50
2023-01-20T06:15:23.764Z,-0.30
2023-01-20T06:30:25.831Z,-0.80
2023-01-20T06:45:28.856Z,-0.60
2023-01-20T07:00:30.989Z,-0.70
2023-01-20T07:15:33.108Z,-0.60
2023-01-20T07:30:35.193Z,-0.50
2023-01-20T07:45:37.341Z,-0.30
2023-01-20T08:00:39.566Z,0.00
2023-01-20T08:15:41.637Z,0.50
2023-01-20T08:30:44.414Z,0.80
2023-01-20T08:45:46.723Z,1.60
2023-01-20T09:00:48.667Z,2.60
2023-01-20T09:15:53.718Z,3.10
2023-01-20T09:31:04.563Z,2.90
2023-01-20T09:46:15.675Z,3.20
2023-01-20T10:01:39.050Z,2.90
2023-01-20T10:16:41.015Z,3.30
2023-01-20T10:32:09.601Z,4.10
2023-01-20T10:47:17.616Z,4.10
2023-01-20T11:02:29.179Z,4.00
2023-01-20T11:17:31.216Z,4.60
2023-01-20T11:32:40.285Z,4.50
2023-01-20T11:47:42.284Z,4.20
2023-01-20T12:02:48.514Z,4.00
2023-01-20T12:18:17.679Z,4.00
2023-01-20T12:33:24.342Z,3.40
2023-01-20T12:48:42.854Z,3.40
2023-01-20T13:04:09.141Z,3.60
2023-01-20T13:19:19.912Z,4.00
2023-01-20T13:34:21.812Z,3.00
2023-01-20T13:49:27.754Z,2.70
2023-01-20T14:04:29.687Z,3.10
2023-01-20T14:19:34.828Z,2.80
2023-01-20T14:34:36.793Z,2.80
2023-01-20T14:49:43.460Z,2.70
2023-01-20T15:04:45.555Z,2.50
2023-01-20T15:19:47.618Z,2.50
2023-01-20T15:34:49.555Z,2.30
2023-01-20T15:49:51.754Z,2.10
2023-01-20T16:04:53.727Z,2.10
2023-01-20T16:19:55.644Z,1.80
2023-01-20T16:34:57.654Z,1.80
2023-01-20T16:49:59.663Z,1.60
2023-01-20T17:05:02.423Z,1.60
2023-01-20T17:20:10.254Z,1.40
2023-01-20T17:35:12.253Z,1.40
2023-01-20T17:50:14.467Z,1.20
2023-01-20T18:05:16.690Z,1.30
2023-01-20T18:20:19.320Z,1.30
2023-01-20T18:35:21.276Z,1.10
2023-01-20T18:50:23.394Z,1.10
2023-01-20T19:05:25.512Z,1.10
2023-01-20T19:20:27.514Z,1.20
2023-01-20T19:35:31.667Z,1.00
2023-01-20T19:50:33.672Z,0.90
2023-01-20T20:05:40.771Z,0.80
2023-01-20T20:20:44.694Z,0.70
2023-01-20T20:35:46.775Z,0.70
2023-01-20T20:50:48.922Z,0.60
2023-01-20T21:05:50.888Z,0.60
2023-01-20T21:21:01.061Z,0.50
2023-01-20T21:36:03.389Z,0.40
2023-01-20T21:51:24.411Z,0.40
2023-01-20T22:06:26.498Z,-0.10
2023-01-20T22:21:29.489Z,-0.20
2023-01-20T22:36:32.197Z,-0.70
2023-01-20T22:51:34.192Z,-0.70
2023-01-20T23:06:36.746Z,-0.60
2023-01-20T23:21:38.785Z,-0.50
2023-01-20T23:36:40.712Z,-0.40
2023-01-20T23:51:42.694Z,-0.40
